KOVS

Boscobel Airport

Boscobel, Wisconsin, USA
METAR KOVS 201153Z AUTO 00000KT 6SM BR CLR M04/M05 A2982 RMK AO2 SLP107 T10391050 10022 21039 53009 FZRANO $
Observed Flight Rules
Jan-20 @ 11:53 UTC (an hour ago) Visual Flight Rules
Wind Visibility Clouds Conditions
Calm 6 miles
  • Clear skies
  • Mist
Temperatures Readings
Current -4°C / 25°F
Dewpoint -5°C / 23°F
Humidity 93%
Altimeter 29.82" Hg
Pressure 1010.7 hPa
Elevation 202
METAR KOVS 201153Z AUTO 00000KT 6SM BR CLR M04/M05 A2982 RMK AO2 SLP107 T10391050 10022 21039 53009 FZRANO $
Observed Flight Rules
Jan-20 @ 11:53 UTC
(an hour ago)
VFR
Wind Visibility
Calm 6 miles
Clouds
  • Clear skies
Conditions
  • Mist
Temperature Dewpoint
-4°C / 25°F -5°C / 23°F
Humidity Altimeter Pressure
93% 29.82" Hg 1010.7 hPa